Greifswald — 3FEC8 — position and weather

sailwx.info

Track history (hours):
 
Tides and Currents Weather Stations Pressure Air Temp Water Temp Dewpoint Dewpoint Depression Visibility Wind Speed Wind Dir Waves Ship Positions

Greifswald

Last reported at 2015-Mar-28 02:12 UTC. Time now 2015-Mar-31 05:25 UTC.
Position N 44°05' E 033°59'.

Length 191 m; draft 5.8 m.

Type: Ship. MMSI: 370492000.

Date/timePositionNaut miles runAvg speedWind from/ knotsBaromVisibWave heightAir tempDewpointWater temp
2015-Mar-28 02:12N 44°05' E 033°59'5 7.3
2015-Mar-28 01:33N 44°03' E 034°05'8 7.2
2015-Mar-28 00:24N 43°59' E 034°16'6 7.4
2015-Mar-27 23:33N 43°57' E 034°24'8 7.5
2015-Mar-27 22:33N 43°54' E 034°33'7 7.2
2015-Mar-27 21:33N 43°51' E 034°42'7 7.0
2015-Mar-27 20:33N 43°48' E 034°51'7 7.0
2015-Mar-27 19:33N 43°46' E 035°00'7 7.1
2015-Mar-27 18:33N 43°43' E 035°10'8 7.1
2015-Mar-27 17:27N 43°40' E 035°20'8 7.1
2015-Mar-27 16:17N 43°37' E 035°30'75 7.7
2015-Mar-27 06:33N 43°07' E 037°05'1312.6
2015-Mar-27 05:34N 43°02' E 037°21'1313.1
2015-Mar-27 04:34N 42°57' E 037°37'1313.0
2015-Mar-27 03:33N 42°52' E 037°54'1312.6
2015-Mar-27 02:33N 42°47' E 038°10'  
2015-Mar-23 18:05N 44°02' E 033°59'5 8.8
2015-Mar-23 17:31N 44°04' E 033°52'  
2015-Mar-18 14:33N 41°16' E 029°08'  
Track history (hours):
 
Tides and Currents Weather Stations Pressure Air Temp Water Temp Dewpoint Dewpoint Depression Visibility Wind Speed Wind Dir Waves Ship Positions

Greifswald

Last reported at 2015-Mar-28 02:12 UTC. Time now 2015-Mar-31 05:25 UTC.
Position N 44°05' E 033°59'.

Length 191 m; draft 5.8 m.

Type: Ship. MMSI: 370492000.

Date/timePositionNaut miles runAvg speedWind from/ knotsBaromVisibWave heightAir tempDewpointWater temp
2015-Mar-28 02:12N 44°05' E 033°59'5 7.3
2015-Mar-28 01:33N 44°03' E 034°05'8 7.2
2015-Mar-28 00:24N 43°59' E 034°16'6 7.4
2015-Mar-27 23:33N 43°57' E 034°24'8 7.5
2015-Mar-27 22:33N 43°54' E 034°33'7 7.2
2015-Mar-27 21:33N 43°51' E 034°42'7 7.0
2015-Mar-27 20:33N 43°48' E 034°51'7 7.0
2015-Mar-27 19:33N 43°46' E 035°00'7 7.1
2015-Mar-27 18:33N 43°43' E 035°10'8 7.1
2015-Mar-27 17:27N 43°40' E 035°20'8 7.1
2015-Mar-27 16:17N 43°37' E 035°30'75 7.7
2015-Mar-27 06:33N 43°07' E 037°05'1312.6
2015-Mar-27 05:34N 43°02' E 037°21'1313.1
2015-Mar-27 04:34N 42°57' E 037°37'1313.0
2015-Mar-27 03:33N 42°52' E 037°54'1312.6
2015-Mar-27 02:33N 42°47' E 038°10'  
2015-Mar-23 18:05N 44°02' E 033°59'5 8.8
2015-Mar-23 17:31N 44°04' E 033°52'  
2015-Mar-18 14:33N 41°16' E 029°08'  

Dump ship's entire track history